Time;durP1;ratioP1;P1;durP2;ratioP2;P2;SDS_P1;SDS_P2;PMS_P1;PMS_P2;Temp;Humidity;BMP_temperature;BMP_pressure;BME280_temperature;BME280_humidity;BME280_pressure;Samples;Min_cycle;Max_cycle;Signal;HPM_P1;HPM_P2
2022/05/24 00:00:58;;;;;;;7.57;4.72;;;12.40;1.00;;;;;;10354688;28;20195;-83
2022/05/24 00:06:19;;;;;;;12.73;5.18;;;12.40;1.00;;;;;;10341195;28;20227;-82
2022/05/24 00:11:41;;;;;;;10.23;5.00;;;12.30;1.00;;;;;;10340665;28;20507;-83
2022/05/24 00:17:03;;;;;;;6.88;4.70;;;12.40;1.00;;;;;;10354280;28;20280;-82
2022/05/24 00:22:25;;;;;;;8.48;4.43;;;12.30;1.00;;;;;;10326722;28;20424;-82
2022/05/24 00:27:47;;;;;;;7.97;4.70;;;12.30;1.00;;;;;;10318461;28;20230;-81
2022/05/24 00:33:10;;;;;;;7.30;5.00;;;12.20;1.00;;;;;;10340326;28;20537;-81
2022/05/24 00:38:36;;;;;;;9.55;5.10;;;12.20;1.00;;;;;;10354448;28;20239;-81
2022/05/24 00:44:21;;;;;;;10.23;5.60;;;12.10;1.00;;;;;;10353583;28;20193;-81
2022/05/24 00:49:52;;;;;;;7.93;5.03;;;12.10;1.00;;;;;;10355848;28;20193;-81
2022/05/24 00:55:15;;;;;;;6.43;4.90;;;12.00;1.00;;;;;;10357391;28;20258;-82
2022/05/24 01:00:37;;;;;;;6.40;5.23;;;12.00;1.00;;;;;;10340567;28;20423;-82
2022/05/24 01:05:59;;;;;;;6.85;5.15;;;11.90;1.00;;;;;;10339903;28;20230;-82
2022/05/24 01:11:22;;;;;;;9.40;5.70;;;11.90;1.00;;;;;;10343278;28;20271;-82
2022/05/24 01:16:44;;;;;;;6.95;5.63;;;11.90;1.00;;;;;;10360872;28;20201;-82
2022/05/24 01:22:19;;;;;;;7.22;5.32;;;11.80;1.00;;;;;;10361478;28;20187;-81
2022/05/24 01:27:41;;;;;;;8.50;5.70;;;11.80;1.00;;;;;;10346308;28;20248;-82
2022/05/24 01:38:47;;;;;;;5.78;5.13;;;11.70;1.00;;;;;;10346456;28;20203;-82
2022/05/24 01:44:11;;;;;;;9.00;5.50;;;11.70;1.00;;;;;;10346040;28;20201;-82
2022/05/24 01:49:36;;;;;;;8.00;5.35;;;11.70;1.00;;;;;;10346038;28;20556;-81
2022/05/24 01:55:13;;;;;;;22.08;5.78;;;11.70;1.00;;;;;;10360810;28;20197;-82
2022/05/24 02:00:35;;;;;;;7.60;5.20;;;11.60;1.00;;;;;;10345141;28;20240;-82
2022/05/24 02:05:58;;;;;;;8.07;5.82;;;11.60;1.00;;;;;;10344754;28;20537;-82
2022/05/24 02:11:24;;;;;;;9.43;5.75;;;11.50;1.00;;;;;;10345088;28;20282;-82
2022/05/24 02:17:10;;;;;;;7.57;6.03;;;11.50;1.00;;;;;;10358792;28;20218;-82
2022/05/24 02:22:31;;;;;;;8.88;6.20;;;11.50;1.00;;;;;;10330287;28;20441;-82
2022/05/24 02:27:53;;;;;;;8.15;5.75;;;11.40;1.00;;;;;;10343833;28;20304;-82
2022/05/24 02:33:15;;;;;;;9.85;5.38;;;11.40;1.00;;;;;;10344979;28;20237;-82
2022/05/24 02:38:37;;;;;;;9.02;5.78;;;11.50;1.00;;;;;;10358393;28;20200;-82
2022/05/24 02:44:08;;;;;;;8.73;5.55;;;11.50;1.00;;;;;;10356974;28;20224;-82
2022/05/24 02:49:29;;;;;;;7.30;5.63;;;11.40;1.00;;;;;;10343627;28;20201;-82
2022/05/24 02:54:50;;;;;;;9.30;5.85;;;11.40;3.30;;;;;;10356935;28;20211;-83
2022/05/24 03:00:15;;;;;;;8.50;6.47;;;11.30;9.50;;;;;;10357189;28;20452;-83
2022/05/24 03:05:38;;;;;;;10.10;6.20;;;11.30;14.80;;;;;;10343483;28;20244;-82
2022/05/24 03:10:59;;;;;;;7.97;5.53;;;11.30;21.40;;;;;;10329400;28;20220;-82
2022/05/24 03:16:21;;;;;;;8.23;5.90;;;11.20;25.10;;;;;;10342470;28;20380;-82
2022/05/24 03:21:43;;;;;;;11.80;6.40;;;11.20;26.30;;;;;;10356556;28;20483;-82
2022/05/24 03:27:08;;;;;;;7.20;5.87;;;11.30;25.20;;;;;;10328337;28;20450;-81
2022/05/24 03:32:29;;;;;;;11.10;6.53;;;11.30;33.90;;;;;;10355478;28;20432;-83
2022/05/24 03:37:50;;;;;;;7.57;6.00;;;11.20;29.20;;;;;;10355439;28;20204;-83
2022/05/24 03:43:14;;;;;;;9.37;6.10;;;11.30;31.40;;;;;;10355662;28;20268;-83
2022/05/24 03:48:36;;;;;;;9.98;6.70;;;11.30;32.60;;;;;;10341158;28;20551;-83
2022/05/24 03:53:57;;;;;;;8.47;6.10;;;11.20;36.50;;;;;;10354844;28;20214;-82
2022/05/24 03:59:20;;;;;;;9.00;5.70;;;11.30;35.70;;;;;;10339942;28;20205;-81
2022/05/24 04:04:42;;;;;;;11.23;6.77;;;11.30;39.00;;;;;;10340879;28;20561;-81
2022/05/24 04:10:09;;;;;;;12.60;6.63;;;11.30;43.90;;;;;;10327138;28;20211;-81
2022/05/24 04:15:30;;;;;;;9.37;6.57;;;11.30;47.80;;;;;;10354567;28;20221;-83
2022/05/24 04:20:52;;;;;;;9.83;6.70;;;11.50;42.40;;;;;;10354198;28;20194;-82
2022/05/24 04:26:13;;;;;;;8.93;6.37;;;11.50;36.30;;;;;;10340120;28;20280;-83
2022/05/24 04:31:34;;;;;;;8.57;6.33;;;11.70;29.80;;;;;;10323393;28;20370;-80
2022/05/24 04:36:57;;;;;;;8.90;6.80;;;11.70;22.60;;;;;;10326689;28;20251;-82
2022/05/24 04:42:22;;;;;;;10.23;6.93;;;11.80;21.80;;;;;;10340877;28;20212;-82
2022/05/24 04:47:43;;;;;;;9.33;6.73;;;11.80;20.20;;;;;;10359883;28;20224;-82
2022/05/24 04:53:06;;;;;;;11.30;7.10;;;12.00;15.90;;;;;;10348207;28;20206;-82
2022/05/24 04:58:27;;;;;;;9.83;6.67;;;12.00;13.20;;;;;;10334071;28;20208;-81
2022/05/24 05:03:49;;;;;;;9.63;6.57;;;12.20;7.80;;;;;;10347514;28;20287;-81
2022/05/24 05:09:11;;;;;;;9.57;6.60;;;12.30;6.10;;;;;;10360714;28;20232;-81
2022/05/24 05:14:33;;;;;;;8.95;6.60;;;12.50;2.00;;;;;;10360721;28;20487;-81
2022/05/24 05:19:54;;;;;;;8.02;6.60;;;12.60;1.00;;;;;;10346453;28;20224;-80
2022/05/24 05:25:16;;;;;;;9.13;5.70;;;12.80;1.00;;;;;;10360405;28;20546;-81
2022/05/24 05:36:19;;;;;;;8.32;5.93;;;13.20;1.00;;;;;;10345322;28;20243;-81
2022/05/24 05:41:40;;;;;;;6.20;4.93;;;13.60;1.00;;;;;;10360353;28;20266;-82
2022/05/24 05:47:02;;;;;;;9.75;5.05;;;14.20;1.00;;;;;;10319127;28;20228;-81
2022/05/24 05:52:23;;;;;;;6.68;4.38;;;14.50;1.00;;;;;;10318554;28;20196;-81
2022/05/24 05:57:45;;;;;;;6.45;4.50;;;14.80;1.00;;;;;;10304733;28;20205;-82
2022/05/24 06:03:07;;;;;;;6.18;5.03;;;15.20;1.00;;;;;;10318383;28;20201;-83
2022/05/24 06:09:06;;;;;;;6.00;5.05;;;15.40;1.00;;;;;;10331802;28;20417;-81
2022/05/24 06:14:27;;;;;;;11.48;5.25;;;15.60;1.00;;;;;;10358082;28;20198;-82
2022/05/24 06:20:11;;;;;;;6.72;5.00;;;15.70;1.00;;;;;;10358423;28;20203;-82
2022/05/24 06:25:33;;;;;;;7.70;4.55;;;15.70;1.00;;;;;;10344520;28;20221;-82
2022/05/24 06:30:55;;;;;;;4.22;3.78;;;15.50;1.00;;;;;;10344072;28;20473;-83
2022/05/24 06:36:16;;;;;;;7.13;4.68;;;15.60;1.00;;;;;;10358365;28;20390;-82
2022/05/24 06:41:37;;;;;;;7.97;5.05;;;15.70;1.00;;;;;;10330034;28;20463;-82
2022/05/24 06:46:58;;;;;;;9.45;4.70;;;15.80;1.00;;;;;;10343406;28;20230;-82
2022/05/24 06:52:20;;;;;;;7.05;3.92;;;16.40;99.90;;;;;;10356977;28;20225;-82
2022/05/24 06:57:42;;;;;;;9.20;4.43;;;16.80;99.90;;;;;;10356628;28;20212;-82
2022/05/24 07:03:08;;;;;;;7.68;3.90;;;16.70;99.90;;;;;;10356513;28;20386;-81
2022/05/24 07:08:29;;;;;;;8.05;4.20;;;16.70;1.00;;;;;;10340168;28;20403;-82
2022/05/24 07:13:51;;;;;;;6.72;3.03;;;16.70;1.00;;;;;;10338236;28;20237;-88
2022/05/24 07:19:12;;;;;;;5.05;3.00;;;17.00;1.00;;;;;;10308589;28;20209;-87
2022/05/24 07:24:34;;;;;;;6.60;2.92;;;17.20;79.90;;;;;;10336774;28;20217;-83
2022/05/24 07:37:22;;;;;;;6.00;2.92;;;17.80;99.90;;;;;;8356206;28;20238;-84
2022/05/24 07:48:25;;;;;;;4.85;2.88;;;19.70;99.90;;;;;;10335662;28;20261;-82
2022/05/24 07:54:12;;;;;;;5.60;2.53;;;19.80;1.00;;;;;;10349144;28;20190;-84
2022/05/24 07:59:36;;;;;;;17.17;3.22;;;19.90;99.90;;;;;;10337103;28;20205;-89
2022/05/24 08:04:57;;;;;;;8.75;2.60;;;20.20;96.00;;;;;;10337395;28;20285;-81
2022/05/24 08:10:19;;;;;;;4.28;2.85;;;19.80;1.00;;;;;;10336189;28;20221;-80
2022/05/24 08:22:21;;;;;;;4.97;2.75;;;19.50;1.00;;;;;;10334984;28;20209;-90
2022/05/24 08:27:43;;;;;;;4.78;3.15;;;19.40;1.00;;;;;;10335127;28;20229;-81
2022/05/24 08:33:06;;;;;;;3.22;2.47;;;19.20;16.90;;;;;;10348851;28;20201;-92
2022/05/24 08:38:28;;;;;;;8.38;3.88;;;18.90;42.50;;;;;;10335850;28;20412;-83
2022/05/24 08:48:22;;;;;;;4.13;3.13;;;18.70;99.90;;;;;;10348923;28;20194;-81
2022/05/24 08:49:47;;;;;;;5.25;2.70;;;18.50;99.90;;;;;;10348292;28;20251;-81
2022/05/24 08:55:10;;;;;;;6.43;2.20;;;18.70;99.90;;;;;;10321611;28;20198;-81
2022/05/24 09:00:41;;;;;;;3.45;1.88;;;18.90;99.90;;;;;;10335250;28;20208;-82
2022/05/24 09:06:31;;;;;;;3.40;1.73;;;19.00;1.00;;;;;;10334614;28;20570;-75
2022/05/24 09:12:20;;;;;;;7.18;1.80;;;19.10;1.00;;;;;;10347751;28;20249;-78
2022/05/24 09:17:48;;;;;;;14.45;2.20;;;19.70;1.00;;;;;;10333087;28;20213;-80
2022/05/24 09:23:32;;;;;;;4.32;1.80;;;20.00;1.00;;;;;;10338444;28;20191;-80
2022/05/24 09:29:08;;;;;;;4.78;1.67;;;20.00;99.90;;;;;;10335303;28;20245;-80
2022/05/24 09:34:31;;;;;;;2.60;1.60;;;20.10;99.90;;;;;;10355396;28;20221;-80
2022/05/24 09:39:57;;;;;;;1.80;1.70;;;20.10;99.90;;;;;;10355142;28;20201;-83
2022/05/24 09:45:22;;;;;;;3.67;2.08;;;20.10;99.90;;;;;;10354683;28;20201;-82
2022/05/24 09:50:51;;;;;;;6.38;2.03;;;20.40;99.90;;;;;;10341520;28;20517;-80
2022/05/24 09:56:24;;;;;;;2.80;1.75;;;20.30;99.90;;;;;;10353761;28;20214;-81
2022/05/24 10:01:49;;;;;;;2.90;1.80;;;19.90;99.90;;;;;;10355544;28;20240;-82
2022/05/24 10:07:23;;;;;;;2.58;1.77;;;19.80;99.90;;;;;;10353582;28;20217;-82
2022/05/24 10:13:36;;;;;;;2.50;1.58;;;19.60;99.90;;;;;;10340875;28;20205;-80
2022/05/24 10:19:26;;;;;;;4.88;2.30;;;19.50;99.90;;;;;;10317287;28;20246;-86
2022/05/24 10:25:19;;;;;;;7.00;2.17;;;19.10;1.00;;;;;;10334611;28;20194;-84
2022/05/24 10:31:05;;;;;;;2.25;2.03;;;19.00;1.00;;;;;;10342659;28;20305;-81
2022/05/24 10:43:00;;;;;;;5.05;2.10;;;18.70;1.00;;;;;;10270723;28;20217;-80
2022/05/24 10:48:38;;;;;;;6.50;3.03;;;18.60;1.00;;;;;;10204312;29;20240;-80
2022/05/24 10:54:30;;;;;;;3.75;2.67;;;18.50;1.00;;;;;;10200819;29;20446;-82
2022/05/24 11:00:03;;;;;;;6.50;3.17;;;18.10;1.00;;;;;;10213840;29;20670;-79
2022/05/24 11:05:30;;;;;;;5.45;3.72;;;17.90;1.00;;;;;;10212126;29;20443;-82
2022/05/24 11:10:52;;;;;;;4.60;2.97;;;17.70;1.00;;;;;;10224134;29;20300;-80
2022/05/24 11:16:26;;;;;;;7.25;3.17;;;17.60;1.00;;;;;;10183408;28;20247;-81
2022/05/24 11:22:09;;;;;;;6.05;2.70;;;17.20;1.00;;;;;;10302498;28;20217;-83
2022/05/24 11:27:38;;;;;;;4.60;2.60;;;17.20;1.00;;;;;;10323380;28;20245;-83
2022/05/24 11:33:02;;;;;;;4.35;2.85;;;17.30;1.00;;;;;;10322940;28;20260;-80
2022/05/24 11:38:24;;;;;;;4.90;2.67;;;17.30;1.00;;;;;;10350301;28;20614;-80
2022/05/24 11:43:44;;;;;;;8.10;3.13;;;17.20;1.00;;;;;;10349607;28;20202;-80
2022/05/24 11:49:28;;;;;;;5.57;2.30;;;17.10;1.00;;;;;;10350817;28;20228;-82
2022/05/24 11:54:50;;;;;;;4.65;2.58;;;17.00;1.00;;;;;;10321772;28;20201;-88
2022/05/24 12:00:12;;;;;;;6.00;2.53;;;17.10;1.00;;;;;;10335570;28;20193;-80
2022/05/24 12:11:34;;;;;;;3.70;2.75;;;17.10;1.00;;;;;;10330512;28;20207;-82
2022/05/24 12:16:55;;;;;;;4.00;2.72;;;17.30;1.00;;;;;;10335209;28;20216;-85
2022/05/24 12:22:27;;;;;;;4.10;2.60;;;17.50;1.00;;;;;;10349165;28;20252;-87
2022/05/24 12:27:51;;;;;;;5.18;2.65;;;17.70;1.00;;;;;;10338689;28;20271;-82
2022/05/24 12:33:16;;;;;;;7.50;2.30;;;17.50;1.00;;;;;;10351360;28;20255;-81
2022/05/24 12:38:39;;;;;;;5.13;2.83;;;17.50;1.00;;;;;;10320774;28;20236;-82
2022/05/24 12:44:10;;;;;;;4.95;2.33;;;17.40;1.00;;;;;;10334946;28;20555;-84
2022/05/24 12:49:47;;;;;;;9.02;4.80;;;17.60;1.00;;;;;;10312704;28;20255;-80
2022/05/24 12:55:54;;;;;;;4.63;3.28;;;17.50;1.00;;;;;;10332776;28;20205;-84
2022/05/24 13:01:27;;;;;;;4.00;3.63;;;17.40;1.00;;;;;;10349867;28;20409;-85
2022/05/24 13:06:48;;;;;;;5.95;3.55;;;17.10;1.00;;;;;;10338527;28;20222;-82
2022/05/24 13:12:12;;;;;;;6.30;3.67;;;17.00;1.00;;;;;;10344060;28;20200;-84
2022/05/24 13:17:40;;;;;;;9.43;4.15;;;17.00;1.00;;;;;;10334118;28;20243;-85
2022/05/24 13:23:18;;;;;;;8.10;4.00;;;16.80;1.00;;;;;;10356552;28;20234;-84
2022/05/24 13:29:05;;;;;;;5.50;3.50;;;16.60;1.00;;;;;;10324166;28;20228;-85
2022/05/24 13:34:35;;;;;;;7.47;4.78;;;16.30;6.20;;;;;;10340767;28;20257;-82
2022/05/24 13:39:57;;;;;;;13.43;4.03;;;16.10;87.00;;;;;;10327662;28;20237;-83
2022/05/24 13:45:26;;;;;;;10.52;5.22;;;15.90;99.90;;;;;;10340882;28;20279;-82
2022/05/24 13:50:47;;;;;;;11.07;7.78;;;15.70;99.90;;;;;;10326622;28;20454;-82
2022/05/24 13:56:28;;;;;;;8.95;7.85;;;15.50;99.90;;;;;;10341573;28;20335;-83
2022/05/24 14:01:54;;;;;;;10.88;7.50;;;15.40;99.90;;;;;;10327328;28;20214;-83
2022/05/24 14:07:18;;;;;;;8.50;5.85;;;15.20;99.90;;;;;;10339680;28;20223;-83
2022/05/24 14:12:42;;;;;;;7.20;5.85;;;15.00;99.90;;;;;;10326157;28;20434;-83
2022/05/24 14:18:06;;;;;;;10.80;6.50;;;15.00;99.90;;;;;;10328274;28;20263;-89
2022/05/24 14:23:28;;;;;;;9.77;6.63;;;15.00;99.90;;;;;;10339817;28;20213;-81
2022/05/24 14:28:50;;;;;;;9.88;6.53;;;14.70;99.90;;;;;;10338643;28;20244;-79
2022/05/24 14:34:13;;;;;;;7.85;6.05;;;14.70;99.90;;;;;;10338404;28;20197;-80
2022/05/24 14:39:36;;;;;;;10.27;9.25;;;14.70;99.90;;;;;;10341184;28;20492;-84
2022/05/24 14:44:57;;;;;;;10.20;7.55;;;14.70;99.90;;;;;;10339066;28;20228;-82
2022/05/24 14:50:18;;;;;;;9.13;6.38;;;14.70;99.90;;;;;;10337769;28;20231;-80
2022/05/24 14:55:40;;;;;;;8.77;6.60;;;14.70;99.90;;;;;;10352253;28;20200;-79
2022/05/24 15:01:03;;;;;;;12.93;7.78;;;14.80;99.90;;;;;;10338849;28;20279;-82
2022/05/24 15:06:24;;;;;;;10.68;5.93;;;14.80;99.90;;;;;;10326174;28;20234;-83
2022/05/24 15:17:35;;;;;;;14.80;9.48;;;14.60;99.90;;;;;;10355585;28;20205;-81
2022/05/24 15:22:59;;;;;;;10.32;8.13;;;14.60;99.90;;;;;;10342134;28;20495;-82
2022/05/24 15:28:24;;;;;;;13.25;8.32;;;14.70;99.90;;;;;;10341686;28;20234;-81
2022/05/24 15:33:45;;;;;;;14.18;10.27;;;14.70;99.90;;;;;;10352392;28;20267;-80
2022/05/24 15:39:08;;;;;;;10.77;7.90;;;14.80;99.90;;;;;;10352675;28;20242;-80
2022/05/24 15:44:29;;;;;;;13.02;11.00;;;14.80;99.90;;;;;;10354250;28;20252;-80
2022/05/24 15:49:51;;;;;;;7.57;6.53;;;14.90;99.90;;;;;;10354794;28;20231;-80
2022/05/24 15:55:13;;;;;;;13.25;8.40;;;14.80;99.90;;;;;;10355021;28;20219;-80
2022/05/24 16:00:36;;;;;;;10.85;7.00;;;14.80;99.90;;;;;;10327332;28;20202;-80
2022/05/24 16:11:48;;;;;;;8.40;7.20;;;14.80;99.90;;;;;;10340237;28;20207;-80
2022/05/24 16:17:14;;;;;;;11.77;6.68;;;14.90;99.90;;;;;;10355552;28;20447;-80
2022/05/24 16:22:38;;;;;;;8.98;7.05;;;14.90;99.90;;;;;;10355017;28;20223;-82
2022/05/24 16:28:00;;;;;;;10.48;7.75;;;15.00;99.90;;;;;;10354899;28;20225;-80
2022/05/24 16:33:30;;;;;;;7.95;6.78;;;15.00;99.90;;;;;;10339081;28;20205;-80
2022/05/24 16:39:12;;;;;;;9.32;7.38;;;15.10;99.90;;;;;;10343141;28;20239;-81
2022/05/24 16:44:34;;;;;;;8.55;6.40;;;15.10;99.90;;;;;;10362708;28;20546;-80
2022/05/24 16:49:55;;;;;;;10.30;8.00;;;15.20;99.90;;;;;;10362072;28;20224;-80
2022/05/24 17:00:59;;;;;;;8.30;7.18;;;15.30;99.90;;;;;;10361456;28;20225;-80
2022/05/24 17:06:21;;;;;;;9.30;7.25;;;15.40;99.90;;;;;;10334173;28;20203;-81
2022/05/24 17:11:42;;;;;;;9.90;6.88;;;15.40;99.90;;;;;;10346544;28;20208;-82
2022/05/24 17:17:04;;;;;;;7.03;6.13;;;15.30;99.90;;;;;;10361986;28;20198;-82
2022/05/24 17:22:25;;;;;;;9.50;8.02;;;15.40;99.90;;;;;;10360689;28;20191;-80
2022/05/24 17:27:47;;;;;;;10.93;7.13;;;15.40;99.90;;;;;;10360534;28;20245;-79
2022/05/24 17:33:16;;;;;;;10.65;7.65;;;15.40;99.90;;;;;;10346257;28;20203;-80
2022/05/24 17:38:38;;;;;;;12.90;8.52;;;15.40;99.90;;;;;;10344426;28;20274;-79
2022/05/24 17:43:59;;;;;;;13.60;9.07;;;15.40;99.90;;;;;;10329986;28;20205;-80
2022/05/24 17:49:22;;;;;;;13.23;9.02;;;15.50;99.90;;;;;;10343498;28;20449;-80
2022/05/24 17:54:44;;;;;;;13.30;8.55;;;15.40;99.90;;;;;;10342927;28;20196;-79
2022/05/24 18:00:07;;;;;;;17.23;10.57;;;15.50;99.90;;;;;;10343106;28;20276;-79
2022/05/24 18:05:32;;;;;;;12.40;9.82;;;15.50;99.90;;;;;;10356854;28;20213;-79
2022/05/24 18:10:54;;;;;;;14.15;9.45;;;15.50;99.90;;;;;;10357021;28;20227;-79
2022/05/24 18:16:15;;;;;;;12.38;9.15;;;15.40;99.90;;;;;;10356456;28;20196;-79
2022/05/24 18:21:41;;;;;;;10.52;7.88;;;15.40;99.90;;;;;;10342295;28;20199;-80
2022/05/24 18:33:07;;;;;;;11.20;7.75;;;15.30;99.90;;;;;;10341845;28;20604;-80
2022/05/24 18:38:29;;;;;;;14.77;10.50;;;15.40;99.90;;;;;;10243334;28;2901036;-79
2022/05/24 18:43:51;;;;;;;15.60;8.07;;;15.30;99.90;;;;;;10357936;28;20231;-79
2022/05/24 18:49:12;;;;;;;9.20;8.05;;;15.30;99.90;;;;;;10357401;28;20225;-80
2022/05/24 18:54:34;;;;;;;12.25;7.20;;;15.30;99.90;;;;;;10356880;28;20201;-80
2022/05/24 18:59:55;;;;;;;9.25;6.32;;;15.30;99.90;;;;;;10356956;28;20198;-80
2022/05/24 19:05:16;;;;;;;10.45;7.25;;;15.20;99.90;;;;;;10355960;28;20195;-79
2022/05/24 19:10:38;;;;;;;11.60;8.18;;;15.20;99.90;;;;;;10342213;28;20399;-81
2022/05/24 19:16:00;;;;;;;12.05;7.40;;;15.20;99.90;;;;;;10356190;28;20203;-81
2022/05/24 19:21:22;;;;;;;10.40;8.65;;;15.10;99.90;;;;;;10355674;28;20417;-80
2022/05/24 19:26:43;;;;;;;12.45;9.50;;;15.00;99.90;;;;;;10356988;28;20262;-81
2022/05/24 19:32:05;;;;;;;15.65;9.05;;;14.90;99.90;;;;;;10342083;28;20196;-80
2022/05/24 19:37:27;;;;;;;11.02;8.25;;;14.80;99.90;;;;;;10341696;28;20316;-80
2022/05/24 19:42:49;;;;;;;9.20;8.15;;;14.80;99.90;;;;;;10356536;28;20485;-80
2022/05/24 19:48:11;;;;;;;9.23;7.65;;;14.70;99.90;;;;;;10341399;28;20231;-80
2022/05/24 19:53:32;;;;;;;10.70;7.85;;;14.70;99.90;;;;;;10355094;28;20194;-80
2022/05/24 19:58:54;;;;;;;9.65;7.20;;;14.60;99.90;;;;;;10355026;28;20200;-79
2022/05/24 20:04:15;;;;;;;7.45;6.15;;;14.60;99.90;;;;;;10326786;28;20464;-80
2022/05/24 20:09:37;;;;;;;8.35;6.47;;;14.60;99.90;;;;;;10340362;28;20263;-81
2022/05/24 20:14:58;;;;;;;9.18;6.45;;;14.50;99.90;;;;;;10340704;28;20560;-80
2022/05/24 20:20:21;;;;;;;8.48;6.65;;;14.50;99.90;;;;;;10355030;28;20204;-80
2022/05/24 20:25:43;;;;;;;9.95;6.78;;;14.40;99.90;;;;;;10327334;28;20219;-79
2022/05/24 20:31:04;;;;;;;8.43;6.80;;;14.40;99.90;;;;;;10353839;28;20228;-80
2022/05/24 20:36:26;;;;;;;8.65;6.82;;;14.30;99.90;;;;;;10299872;28;20236;-80
2022/05/24 20:41:47;;;;;;;10.25;6.93;;;14.30;99.90;;;;;;10339702;28;20209;-79
2022/05/24 20:47:10;;;;;;;9.63;7.55;;;14.20;99.90;;;;;;10353763;28;20299;-79
2022/05/24 20:52:31;;;;;;;10.20;8.05;;;14.20;99.90;;;;;;10313681;28;20232;-81
2022/05/24 20:57:53;;;;;;;8.80;7.22;;;14.20;99.90;;;;;;10316995;28;20214;-79
2022/05/24 21:03:15;;;;;;;8.82;6.63;;;14.10;99.90;;;;;;10353374;28;20208;-80
2022/05/24 21:08:37;;;;;;;8.25;6.80;;;14.00;99.90;;;;;;10325810;28;20231;-80
2022/05/24 21:13:58;;;;;;;11.52;7.10;;;14.00;99.90;;;;;;10353671;28;20233;-79
2022/05/24 21:19:19;;;;;;;11.80;7.78;;;14.00;99.90;;;;;;10327754;28;20283;-80
2022/05/24 21:24:40;;;;;;;9.95;7.70;;;14.00;99.90;;;;;;10353493;28;20423;-79
2022/05/24 21:30:02;;;;;;;10.75;8.95;;;13.90;99.90;;;;;;10359390;28;20228;-81
2022/05/24 21:35:28;;;;;;;10.70;8.20;;;13.90;99.90;;;;;;10361203;28;20467;-80
2022/05/24 21:40:50;;;;;;;13.18;10.25;;;14.00;99.90;;;;;;10332620;28;20215;-80
2022/05/24 21:46:11;;;;;;;15.23;10.18;;;14.00;99.90;;;;;;10360790;28;20222;-81
2022/05/24 21:51:33;;;;;;;14.80;10.52;;;14.00;99.90;;;;;;10359812;28;20238;-80
2022/05/24 21:56:55;;;;;;;12.15;9.20;;;14.00;99.90;;;;;;10359567;28;20220;-80
2022/05/24 22:02:16;;;;;;;14.70;9.15;;;14.00;99.90;;;;;;10345570;28;20227;-80
2022/05/24 22:07:38;;;;;;;12.40;8.52;;;14.10;99.90;;;;;;10345340;28;20522;-79
2022/05/24 22:12:59;;;;;;;12.63;9.60;;;14.00;99.90;;;;;;10355012;28;20249;-80
2022/05/24 22:18:21;;;;;;;9.48;7.78;;;14.10;99.90;;;;;;10358403;28;20235;-80
2022/05/24 22:23:46;;;;;;;8.15;7.32;;;14.10;99.90;;;;;;10358812;28;20464;-80
2022/05/24 22:29:08;;;;;;;9.40;7.30;;;14.10;99.90;;;;;;10330835;28;20236;-79
2022/05/24 22:34:29;;;;;;;9.90;7.85;;;14.10;99.90;;;;;;10344912;28;20266;-80
2022/05/24 22:39:50;;;;;;;8.63;6.97;;;14.20;99.90;;;;;;10343058;28;20199;-80
2022/05/24 22:45:13;;;;;;;7.55;6.20;;;14.20;99.90;;;;;;10358734;28;20195;-80
2022/05/24 22:50:35;;;;;;;12.07;7.38;;;14.30;99.90;;;;;;10357138;28;20220;-80
2022/05/24 22:55:56;;;;;;;12.15;9.20;;;14.30;99.90;;;;;;10357222;28;20506;-80
2022/05/24 23:01:20;;;;;;;10.95;8.60;;;14.20;99.90;;;;;;10316635;28;20504;-81
2022/05/24 23:06:41;;;;;;;13.20;9.25;;;14.20;99.90;;;;;;10320986;28;20196;-81
2022/05/24 23:12:04;;;;;;;15.43;10.25;;;14.20;99.90;;;;;;10372963;28;20206;-80
2022/05/24 23:17:25;;;;;;;14.40;9.63;;;14.10;99.90;;;;;;10382917;28;20201;-80
2022/05/24 23:22:47;;;;;;;16.27;9.20;;;14.00;99.90;;;;;;10356345;28;20228;-80
2022/05/24 23:28:08;;;;;;;10.88;8.38;;;14.00;99.90;;;;;;10356501;28;20227;-80
2022/05/24 23:33:30;;;;;;;16.05;10.30;;;14.00;99.90;;;;;;10328590;28;20232;-80
2022/05/24 23:38:51;;;;;;;12.40;9.57;;;14.00;99.90;;;;;;10355663;28;20232;-81
2022/05/24 23:44:12;;;;;;;12.05;8.85;;;14.00;99.90;;;;;;10356579;28;20217;-80
2022/05/24 23:49:33;;;;;;;9.38;8.43;;;13.90;99.90;;;;;;10341115;28;20231;-81
2022/05/24 23:54:54;;;;;;;9.13;8.23;;;13.90;99.90;;;;;;10356408;28;20440;-80
